sensor_id;sensor_type;location;lat;lon;timestamp;P1;durP1;ratioP1;P2;durP2;ratioP2
12135;SDS011;6131;56.420;15.548;2023-11-21T00:00:05;6.43;;;5.07;;
12135;SDS011;6131;56.420;15.548;2023-11-21T00:02:37;6.87;;;5.30;;
12135;SDS011;6131;56.420;15.548;2023-11-21T00:05:05;6.60;;;4.70;;
12135;SDS011;6131;56.420;15.548;2023-11-21T00:07:33;6.33;;;4.73;;
12135;SDS011;6131;56.420;15.548;2023-11-21T00:09:59;5.47;;;4.90;;
12135;SDS011;6131;56.420;15.548;2023-11-21T00:12:25;8.90;;;4.93;;
12135;SDS011;6131;56.420;15.548;2023-11-21T00:14:51;8.40;;;5.30;;
12135;SDS011;6131;56.420;15.548;2023-11-21T00:17:18;9.33;;;5.50;;
12135;SDS011;6131;56.420;15.548;2023-11-21T00:19:44;8.10;;;5.00;;
12135;SDS011;6131;56.420;15.548;2023-11-21T00:22:10;8.23;;;5.13;;
12135;SDS011;6131;56.420;15.548;2023-11-21T00:24:36;7.20;;;5.37;;
12135;SDS011;6131;56.420;15.548;2023-11-21T00:27:02;7.47;;;5.10;;
12135;SDS011;6131;56.420;15.548;2023-11-21T00:29:28;6.03;;;4.80;;
12135;SDS011;6131;56.420;15.548;2023-11-21T00:31:54;9.57;;;5.93;;
12135;SDS011;6131;56.420;15.548;2023-11-21T00:34:20;7.93;;;5.50;;
12135;SDS011;6131;56.420;15.548;2023-11-21T00:36:46;8.10;;;5.20;;
12135;SDS011;6131;56.420;15.548;2023-11-21T00:39:12;8.63;;;5.17;;
12135;SDS011;6131;56.420;15.548;2023-11-21T00:41:38;6.93;;;5.07;;
12135;SDS011;6131;56.420;15.548;2023-11-21T00:44:04;6.23;;;4.90;;
12135;SDS011;6131;56.420;15.548;2023-11-21T00:46:31;8.40;;;5.43;;
12135;SDS011;6131;56.420;15.548;2023-11-21T00:48:57;7.27;;;5.20;;
12135;SDS011;6131;56.420;15.548;2023-11-21T00:51:23;10.10;;;5.87;;
12135;SDS011;6131;56.420;15.548;2023-11-21T00:53:49;9.70;;;6.00;;
12135;SDS011;6131;56.420;15.548;2023-11-21T00:56:15;8.37;;;5.33;;
12135;SDS011;6131;56.420;15.548;2023-11-21T00:58:41;9.40;;;5.33;;
12135;SDS011;6131;56.420;15.548;2023-11-21T01:01:11;8.10;;;5.17;;
12135;SDS011;6131;56.420;15.548;2023-11-21T01:03:37;8.20;;;5.43;;
12135;SDS011;6131;56.420;15.548;2023-11-21T01:06:03;8.73;;;5.40;;
12135;SDS011;6131;56.420;15.548;2023-11-21T01:08:32;9.17;;;5.53;;
12135;SDS011;6131;56.420;15.548;2023-11-21T01:10:58;8.33;;;5.40;;
12135;SDS011;6131;56.420;15.548;2023-11-21T01:13:24;9.87;;;5.30;;
12135;SDS011;6131;56.420;15.548;2023-11-21T01:15:54;9.00;;;4.90;;
12135;SDS011;6131;56.420;15.548;2023-11-21T01:18:20;9.30;;;5.10;;
12135;SDS011;6131;56.420;15.548;2023-11-21T01:20:46;6.30;;;5.07;;
12135;SDS011;6131;56.420;15.548;2023-11-21T01:23:13;9.10;;;5.00;;
12135;SDS011;6131;56.420;15.548;2023-11-21T01:25:39;6.23;;;4.77;;
12135;SDS011;6131;56.420;15.548;2023-11-21T01:28:05;7.43;;;5.03;;
12135;SDS011;6131;56.420;15.548;2023-11-21T01:30:31;9.60;;;5.07;;
12135;SDS011;6131;56.420;15.548;2023-11-21T01:32:57;9.43;;;5.03;;
12135;SDS011;6131;56.420;15.548;2023-11-21T01:35:23;7.80;;;4.53;;
12135;SDS011;6131;56.420;15.548;2023-11-21T01:37:49;7.57;;;5.40;;
12135;SDS011;6131;56.420;15.548;2023-11-21T01:40:15;8.53;;;5.00;;
12135;SDS011;6131;56.420;15.548;2023-11-21T01:42:42;5.97;;;4.57;;
12135;SDS011;6131;56.420;15.548;2023-11-21T01:45:09;8.53;;;4.77;;
12135;SDS011;6131;56.420;15.548;2023-11-21T01:47:35;7.47;;;4.93;;
12135;SDS011;6131;56.420;15.548;2023-11-21T01:50:01;9.00;;;4.83;;
12135;SDS011;6131;56.420;15.548;2023-11-21T01:52:29;5.73;;;4.37;;
12135;SDS011;6131;56.420;15.548;2023-11-21T01:54:56;7.17;;;4.23;;
12135;SDS011;6131;56.420;15.548;2023-11-21T01:57:22;6.03;;;4.20;;
12135;SDS011;6131;56.420;15.548;2023-11-21T01:59:48;6.27;;;4.47;;
12135;SDS011;6131;56.420;15.548;2023-11-21T02:02:15;9.33;;;4.50;;
12135;SDS011;6131;56.420;15.548;2023-11-21T02:04:41;5.17;;;4.23;;
12135;SDS011;6131;56.420;15.548;2023-11-21T02:07:07;8.67;;;4.60;;
12135;SDS011;6131;56.420;15.548;2023-11-21T02:09:33;9.50;;;4.87;;
12135;SDS011;6131;56.420;15.548;2023-11-21T02:12:02;7.07;;;4.60;;
12135;SDS011;6131;56.420;15.548;2023-11-21T02:14:29;8.13;;;4.63;;
12135;SDS011;6131;56.420;15.548;2023-11-21T02:16:55;7.47;;;4.70;;
12135;SDS011;6131;56.420;15.548;2023-11-21T02:19:26;10.63;;;4.60;;
12135;SDS011;6131;56.420;15.548;2023-11-21T02:21:52;7.77;;;4.40;;
12135;SDS011;6131;56.420;15.548;2023-11-21T02:24:22;8.43;;;5.03;;
12135;SDS011;6131;56.420;15.548;2023-11-21T02:26:48;7.63;;;5.00;;
12135;SDS011;6131;56.420;15.548;2023-11-21T02:29:18;8.03;;;5.40;;
12135;SDS011;6131;56.420;15.548;2023-11-21T02:31:47;7.17;;;4.93;;
12135;SDS011;6131;56.420;15.548;2023-11-21T02:34:16;7.43;;;5.00;;
12135;SDS011;6131;56.420;15.548;2023-11-21T02:36:43;9.10;;;5.03;;
12135;SDS011;6131;56.420;15.548;2023-11-21T02:39:09;8.40;;;5.33;;
12135;SDS011;6131;56.420;15.548;2023-11-21T02:41:39;7.37;;;5.10;;
12135;SDS011;6131;56.420;15.548;2023-11-21T02:44:05;8.07;;;5.20;;
12135;SDS011;6131;56.420;15.548;2023-11-21T02:46:35;7.07;;;4.90;;
12135;SDS011;6131;56.420;15.548;2023-11-21T02:49:04;8.17;;;5.23;;
12135;SDS011;6131;56.420;15.548;2023-11-21T02:51:35;9.27;;;5.50;;
12135;SDS011;6131;56.420;15.548;2023-11-21T02:54:02;6.97;;;5.13;;
12135;SDS011;6131;56.420;15.548;2023-11-21T02:56:31;8.93;;;4.67;;
12135;SDS011;6131;56.420;15.548;2023-11-21T02:58:59;8.70;;;5.20;;
12135;SDS011;6131;56.420;15.548;2023-11-21T03:01:25;6.70;;;5.07;;
12135;SDS011;6131;56.420;15.548;2023-11-21T03:03:52;7.40;;;5.00;;
12135;SDS011;6131;56.420;15.548;2023-11-21T03:06:21;8.50;;;4.83;;
12135;SDS011;6131;56.420;15.548;2023-11-21T03:08:47;6.47;;;4.97;;
12135;SDS011;6131;56.420;15.548;2023-11-21T03:11:13;8.37;;;4.77;;
12135;SDS011;6131;56.420;15.548;2023-11-21T03:13:40;6.60;;;4.80;;
12135;SDS011;6131;56.420;15.548;2023-11-21T03:16:07;5.87;;;4.70;;
12135;SDS011;6131;56.420;15.548;2023-11-21T03:18:34;8.23;;;4.70;;
12135;SDS011;6131;56.420;15.548;2023-11-21T03:21:00;6.87;;;4.80;;
12135;SDS011;6131;56.420;15.548;2023-11-21T03:23:26;5.93;;;4.17;;
12135;SDS011;6131;56.420;15.548;2023-11-21T03:25:52;8.47;;;4.80;;
12135;SDS011;6131;56.420;15.548;2023-11-21T03:28:18;7.60;;;4.63;;
12135;SDS011;6131;56.420;15.548;2023-11-21T03:30:44;8.80;;;5.00;;
12135;SDS011;6131;56.420;15.548;2023-11-21T03:33:10;7.13;;;4.17;;
12135;SDS011;6131;56.420;15.548;2023-11-21T03:35:36;7.80;;;4.33;;
12135;SDS011;6131;56.420;15.548;2023-11-21T03:38:01;5.13;;;3.83;;
12135;SDS011;6131;56.420;15.548;2023-11-21T03:40:28;6.13;;;4.00;;
12135;SDS011;6131;56.420;15.548;2023-11-21T03:42:54;5.90;;;3.90;;
12135;SDS011;6131;56.420;15.548;2023-11-21T03:45:20;6.17;;;4.53;;
12135;SDS011;6131;56.420;15.548;2023-11-21T03:47:46;7.13;;;4.30;;
12135;SDS011;6131;56.420;15.548;2023-11-21T03:50:12;7.27;;;4.70;;
12135;SDS011;6131;56.420;15.548;2023-11-21T03:52:38;6.73;;;3.53;;
12135;SDS011;6131;56.420;15.548;2023-11-21T03:55:04;7.83;;;4.40;;
12135;SDS011;6131;56.420;15.548;2023-11-21T03:57:30;7.30;;;4.30;;
12135;SDS011;6131;56.420;15.548;2023-11-21T03:59:56;5.60;;;4.23;;
12135;SDS011;6131;56.420;15.548;2023-11-21T04:02:30;9.17;;;4.37;;
12135;SDS011;6131;56.420;15.548;2023-11-21T04:04:56;7.90;;;4.40;;
12135;SDS011;6131;56.420;15.548;2023-11-21T04:07:22;7.47;;;4.23;;
12135;SDS011;6131;56.420;15.548;2023-11-21T04:09:48;6.80;;;4.27;;
12135;SDS011;6131;56.420;15.548;2023-11-21T04:12:14;9.33;;;4.73;;
12135;SDS011;6131;56.420;15.548;2023-11-21T04:14:40;6.77;;;4.20;;
12135;SDS011;6131;56.420;15.548;2023-11-21T04:17:06;7.00;;;4.50;;
12135;SDS011;6131;56.420;15.548;2023-11-21T04:19:32;8.77;;;4.50;;
12135;SDS011;6131;56.420;15.548;2023-11-21T04:21:58;5.10;;;3.70;;
12135;SDS011;6131;56.420;15.548;2023-11-21T04:24:24;6.70;;;4.27;;
12135;SDS011;6131;56.420;15.548;2023-11-21T04:26:50;6.10;;;3.87;;
12135;SDS011;6131;56.420;15.548;2023-11-21T04:29:16;8.00;;;4.27;;
12135;SDS011;6131;56.420;15.548;2023-11-21T04:31:42;6.90;;;3.73;;
12135;SDS011;6131;56.420;15.548;2023-11-21T04:34:08;5.57;;;4.27;;
12135;SDS011;6131;56.420;15.548;2023-11-21T04:36:34;7.83;;;3.83;;
12135;SDS011;6131;56.420;15.548;2023-11-21T04:39:00;7.53;;;3.53;;
12135;SDS011;6131;56.420;15.548;2023-11-21T04:41:26;6.10;;;3.80;;
12135;SDS011;6131;56.420;15.548;2023-11-21T04:43:52;6.23;;;3.60;;
12135;SDS011;6131;56.420;15.548;2023-11-21T04:46:18;5.27;;;3.40;;
12135;SDS011;6131;56.420;15.548;2023-11-21T04:48:44;7.63;;;3.60;;
12135;SDS011;6131;56.420;15.548;2023-11-21T04:51:10;6.10;;;3.83;;
12135;SDS011;6131;56.420;15.548;2023-11-21T04:53:37;6.20;;;3.70;;
12135;SDS011;6131;56.420;15.548;2023-11-21T04:56:04;8.13;;;4.20;;
12135;SDS011;6131;56.420;15.548;2023-11-21T04:58:30;6.87;;;3.90;;
12135;SDS011;6131;56.420;15.548;2023-11-21T05:00:57;4.50;;;3.40;;
12135;SDS011;6131;56.420;15.548;2023-11-21T05:03:24;6.03;;;3.90;;
12135;SDS011;6131;56.420;15.548;2023-11-21T05:05:50;4.17;;;3.43;;
12135;SDS011;6131;56.420;15.548;2023-11-21T05:08:16;5.37;;;3.20;;
12135;SDS011;6131;56.420;15.548;2023-11-21T05:10:44;6.43;;;3.97;;
12135;SDS011;6131;56.420;15.548;2023-11-21T05:13:09;5.07;;;3.40;;
12135;SDS011;6131;56.420;15.548;2023-11-21T05:15:36;4.37;;;3.50;;
12135;SDS011;6131;56.420;15.548;2023-11-21T05:18:03;5.27;;;3.33;;
12135;SDS011;6131;56.420;15.548;2023-11-21T05:20:30;6.50;;;3.67;;
12135;SDS011;6131;56.420;15.548;2023-11-21T05:22:56;5.83;;;3.77;;
12135;SDS011;6131;56.420;15.548;2023-11-21T05:25:23;7.83;;;3.47;;
12135;SDS011;6131;56.420;15.548;2023-11-21T05:27:49;6.43;;;3.70;;
12135;SDS011;6131;56.420;15.548;2023-11-21T05:30:15;6.20;;;3.93;;
12135;SDS011;6131;56.420;15.548;2023-11-21T05:32:41;4.60;;;3.40;;
12135;SDS011;6131;56.420;15.548;2023-11-21T05:35:07;7.00;;;3.93;;
12135;SDS011;6131;56.420;15.548;2023-11-21T05:37:40;6.50;;;3.87;;
12135;SDS011;6131;56.420;15.548;2023-11-21T05:40:07;6.07;;;3.70;;
12135;SDS011;6131;56.420;15.548;2023-11-21T05:42:33;4.93;;;3.43;;
12135;SDS011;6131;56.420;15.548;2023-11-21T05:44:59;7.30;;;3.77;;
12135;SDS011;6131;56.420;15.548;2023-11-21T05:47:38;5.10;;;3.80;;
12135;SDS011;6131;56.420;15.548;2023-11-21T05:50:05;7.00;;;4.27;;
12135;SDS011;6131;56.420;15.548;2023-11-21T05:52:34;6.70;;;3.97;;
12135;SDS011;6131;56.420;15.548;2023-11-21T05:55:00;5.60;;;3.63;;
12135;SDS011;6131;56.420;15.548;2023-11-21T05:57:26;7.53;;;4.27;;
12135;SDS011;6131;56.420;15.548;2023-11-21T05:59:52;6.33;;;3.47;;
12135;SDS011;6131;56.420;15.548;2023-11-21T06:02:18;6.37;;;3.60;;
12135;SDS011;6131;56.420;15.548;2023-11-21T06:04:44;6.37;;;3.43;;
12135;SDS011;6131;56.420;15.548;2023-11-21T06:07:10;5.27;;;3.40;;
12135;SDS011;6131;56.420;15.548;2023-11-21T06:09:36;6.70;;;3.67;;
12135;SDS011;6131;56.420;15.548;2023-11-21T06:12:02;5.30;;;3.20;;
12135;SDS011;6131;56.420;15.548;2023-11-21T06:14:29;4.90;;;3.53;;
12135;SDS011;6131;56.420;15.548;2023-11-21T06:16:55;4.53;;;3.17;;
12135;SDS011;6131;56.420;15.548;2023-11-21T06:19:22;5.37;;;3.73;;
12135;SDS011;6131;56.420;15.548;2023-11-21T06:21:48;5.90;;;3.20;;
12135;SDS011;6131;56.420;15.548;2023-11-21T06:24:14;5.63;;;3.00;;
12135;SDS011;6131;56.420;15.548;2023-11-21T06:26:40;5.47;;;3.37;;
12135;SDS011;6131;56.420;15.548;2023-11-21T06:29:06;3.93;;;3.10;;
12135;SDS011;6131;56.420;15.548;2023-11-21T06:31:32;4.37;;;2.80;;
12135;SDS011;6131;56.420;15.548;2023-11-21T06:33:58;5.83;;;3.30;;
12135;SDS011;6131;56.420;15.548;2023-11-21T06:36:25;4.43;;;3.37;;
12135;SDS011;6131;56.420;15.548;2023-11-21T06:38:51;5.83;;;3.10;;
12135;SDS011;6131;56.420;15.548;2023-11-21T06:41:17;4.63;;;3.13;;
12135;SDS011;6131;56.420;15.548;2023-11-21T06:43:43;6.30;;;3.40;;
12135;SDS011;6131;56.420;15.548;2023-11-21T06:46:11;6.23;;;3.30;;
12135;SDS011;6131;56.420;15.548;2023-11-21T06:48:39;5.93;;;3.20;;
12135;SDS011;6131;56.420;15.548;2023-11-21T06:51:06;5.13;;;3.00;;
12135;SDS011;6131;56.420;15.548;2023-11-21T06:53:32;4.10;;;3.03;;
12135;SDS011;6131;56.420;15.548;2023-11-21T06:55:58;5.27;;;3.60;;
12135;SDS011;6131;56.420;15.548;2023-11-21T06:58:24;5.03;;;3.20;;
12135;SDS011;6131;56.420;15.548;2023-11-21T07:00:50;4.90;;;3.50;;
12135;SDS011;6131;56.420;15.548;2023-11-21T07:03:17;6.10;;;3.30;;
12135;SDS011;6131;56.420;15.548;2023-11-21T07:05:44;6.30;;;3.07;;
12135;SDS011;6131;56.420;15.548;2023-11-21T07:08:10;6.83;;;3.00;;
12135;SDS011;6131;56.420;15.548;2023-11-21T07:10:37;4.27;;;3.07;;
12135;SDS011;6131;56.420;15.548;2023-11-21T07:13:03;5.13;;;3.17;;
12135;SDS011;6131;56.420;15.548;2023-11-21T07:15:29;4.00;;;3.03;;
12135;SDS011;6131;56.420;15.548;2023-11-21T07:17:55;4.27;;;2.87;;
12135;SDS011;6131;56.420;15.548;2023-11-21T07:20:22;5.57;;;3.00;;
12135;SDS011;6131;56.420;15.548;2023-11-21T07:22:48;3.87;;;3.00;;
12135;SDS011;6131;56.420;15.548;2023-11-21T07:25:15;5.23;;;2.77;;
12135;SDS011;6131;56.420;15.548;2023-11-21T07:27:41;3.93;;;3.00;;
12135;SDS011;6131;56.420;15.548;2023-11-21T07:30:07;4.97;;;3.33;;
12135;SDS011;6131;56.420;15.548;2023-11-21T07:32:34;4.97;;;3.30;;
12135;SDS011;6131;56.420;15.548;2023-11-21T07:35:00;5.93;;;3.37;;
12135;SDS011;6131;56.420;15.548;2023-11-21T07:37:26;4.33;;;2.83;;
12135;SDS011;6131;56.420;15.548;2023-11-21T07:39:55;4.23;;;2.97;;
12135;SDS011;6131;56.420;15.548;2023-11-21T07:42:23;5.23;;;3.50;;
12135;SDS011;6131;56.420;15.548;2023-11-21T07:44:51;5.20;;;2.77;;
12135;SDS011;6131;56.420;15.548;2023-11-21T07:47:17;4.63;;;2.90;;
12135;SDS011;6131;56.420;15.548;2023-11-21T07:49:43;8.10;;;2.97;;
12135;SDS011;6131;56.420;15.548;2023-11-21T07:52:10;4.30;;;2.87;;
12135;SDS011;6131;56.420;15.548;2023-11-21T07:54:36;4.23;;;2.70;;
12135;SDS011;6131;56.420;15.548;2023-11-21T07:57:03;3.93;;;2.70;;
12135;SDS011;6131;56.420;15.548;2023-11-21T07:59:29;4.60;;;2.60;;
12135;SDS011;6131;56.420;15.548;2023-11-21T08:01:55;5.57;;;2.70;;
12135;SDS011;6131;56.420;15.548;2023-11-21T08:04:21;4.17;;;3.00;;
12135;SDS011;6131;56.420;15.548;2023-11-21T08:06:48;5.40;;;2.93;;
12135;SDS011;6131;56.420;15.548;2023-11-21T08:09:14;5.30;;;2.93;;
12135;SDS011;6131;56.420;15.548;2023-11-21T08:11:42;3.87;;;2.63;;
12135;SDS011;6131;56.420;15.548;2023-11-21T08:14:08;3.77;;;2.77;;
12135;SDS011;6131;56.420;15.548;2023-11-21T08:16:34;4.50;;;2.83;;
12135;SDS011;6131;56.420;15.548;2023-11-21T08:19:00;4.07;;;2.83;;
12135;SDS011;6131;56.420;15.548;2023-11-21T08:21:27;3.80;;;2.93;;
12135;SDS011;6131;56.420;15.548;2023-11-21T08:23:54;5.50;;;3.33;;
12135;SDS011;6131;56.420;15.548;2023-11-21T08:26:21;5.23;;;3.10;;
12135;SDS011;6131;56.420;15.548;2023-11-21T08:28:47;4.73;;;2.80;;
12135;SDS011;6131;56.420;15.548;2023-11-21T08:31:13;5.60;;;3.30;;
12135;SDS011;6131;56.420;15.548;2023-11-21T08:33:39;4.17;;;2.57;;
12135;SDS011;6131;56.420;15.548;2023-11-21T08:36:08;3.40;;;2.90;;
12135;SDS011;6131;56.420;15.548;2023-11-21T08:38:36;4.70;;;3.23;;
12135;SDS011;6131;56.420;15.548;2023-11-21T08:41:06;3.83;;;3.10;;
12135;SDS011;6131;56.420;15.548;2023-11-21T08:43:36;4.53;;;2.80;;
12135;SDS011;6131;56.420;15.548;2023-11-21T08:46:05;4.10;;;2.87;;
12135;SDS011;6131;56.420;15.548;2023-11-21T08:48:33;4.30;;;3.07;;
12135;SDS011;6131;56.420;15.548;2023-11-21T08:50:59;3.37;;;2.93;;
12135;SDS011;6131;56.420;15.548;2023-11-21T08:53:25;5.67;;;2.80;;
12135;SDS011;6131;56.420;15.548;2023-11-21T08:55:51;4.17;;;2.80;;
12135;SDS011;6131;56.420;15.548;2023-11-21T08:58:18;3.87;;;2.90;;
12135;SDS011;6131;56.420;15.548;2023-11-21T09:00:44;7.30;;;2.73;;
12135;SDS011;6131;56.420;15.548;2023-11-21T09:03:11;4.83;;;3.03;;
12135;SDS011;6131;56.420;15.548;2023-11-21T09:05:37;4.67;;;2.67;;
12135;SDS011;6131;56.420;15.548;2023-11-21T09:08:04;3.93;;;2.90;;
12135;SDS011;6131;56.420;15.548;2023-11-21T09:10:30;4.47;;;2.80;;
12135;SDS011;6131;56.420;15.548;2023-11-21T09:12:57;2.70;;;2.43;;
12135;SDS011;6131;56.420;15.548;2023-11-21T09:15:24;2.87;;;2.20;;
12135;SDS011;6131;56.420;15.548;2023-11-21T09:17:50;3.13;;;2.30;;
12135;SDS011;6131;56.420;15.548;2023-11-21T09:20:16;2.53;;;2.27;;
12135;SDS011;6131;56.420;15.548;2023-11-21T09:22:42;2.83;;;2.30;;
12135;SDS011;6131;56.420;15.548;2023-11-21T09:25:09;2.87;;;1.80;;
12135;SDS011;6131;56.420;15.548;2023-11-21T09:27:35;3.67;;;2.60;;
12135;SDS011;6131;56.420;15.548;2023-11-21T09:30:02;2.93;;;2.20;;
12135;SDS011;6131;56.420;15.548;2023-11-21T09:32:30;4.23;;;2.70;;
12135;SDS011;6131;56.420;15.548;2023-11-21T09:34:56;2.80;;;2.50;;
12135;SDS011;6131;56.420;15.548;2023-11-21T09:37:23;4.57;;;2.37;;
12135;SDS011;6131;56.420;15.548;2023-11-21T09:39:51;3.57;;;2.40;;
12135;SDS011;6131;56.420;15.548;2023-11-21T09:42:30;3.70;;;2.17;;
12135;SDS011;6131;56.420;15.548;2023-11-21T09:47:23;4.07;;;2.47;;
12135;SDS011;6131;56.420;15.548;2023-11-21T09:49:49;2.87;;;2.10;;
12135;SDS011;6131;56.420;15.548;2023-11-21T09:52:18;3.53;;;2.90;;
12135;SDS011;6131;56.420;15.548;2023-11-21T09:54:47;2.90;;;2.20;;
12135;SDS011;6131;56.420;15.548;2023-11-21T09:57:14;5.10;;;2.33;;
12135;SDS011;6131;56.420;15.548;2023-11-21T09:59:40;3.70;;;2.50;;
12135;SDS011;6131;56.420;15.548;2023-11-21T10:02:07;2.67;;;2.37;;
12135;SDS011;6131;56.420;15.548;2023-11-21T10:04:37;3.13;;;2.20;;
12135;SDS011;6131;56.420;15.548;2023-11-21T10:07:04;4.53;;;2.17;;
12135;SDS011;6131;56.420;15.548;2023-11-21T10:09:34;3.17;;;2.10;;
12135;SDS011;6131;56.420;15.548;2023-11-21T10:12:00;3.20;;;2.40;;
12135;SDS011;6131;56.420;15.548;2023-11-21T10:14:26;4.33;;;2.20;;
12135;SDS011;6131;56.420;15.548;2023-11-21T10:16:54;2.93;;;2.20;;
12135;SDS011;6131;56.420;15.548;2023-11-21T10:19:21;3.20;;;2.20;;
12135;SDS011;6131;56.420;15.548;2023-11-21T10:21:48;3.13;;;2.40;;
12135;SDS011;6131;56.420;15.548;2023-11-21T10:24:16;2.77;;;2.20;;
12135;SDS011;6131;56.420;15.548;2023-11-21T10:26:43;2.90;;;2.30;;
12135;SDS011;6131;56.420;15.548;2023-11-21T10:29:10;3.60;;;2.30;;
12135;SDS011;6131;56.420;15.548;2023-11-21T10:31:42;3.33;;;2.10;;
12135;SDS011;6131;56.420;15.548;2023-11-21T10:34:16;2.70;;;2.20;;
12135;SDS011;6131;56.420;15.548;2023-11-21T10:36:43;2.80;;;2.10;;
12135;SDS011;6131;56.420;15.548;2023-11-21T10:39:09;2.57;;;1.97;;
12135;SDS011;6131;56.420;15.548;2023-11-21T10:41:35;3.37;;;2.07;;
12135;SDS011;6131;56.420;15.548;2023-11-21T10:44:01;2.53;;;2.33;;
12135;SDS011;6131;56.420;15.548;2023-11-21T10:46:36;2.80;;;2.00;;
12135;SDS011;6131;56.420;15.548;2023-11-21T10:49:02;2.80;;;2.07;;
12135;SDS011;6131;56.420;15.548;2023-11-21T10:51:28;3.77;;;2.20;;
12135;SDS011;6131;56.420;15.548;2023-11-21T10:53:54;2.50;;;2.13;;
12135;SDS011;6131;56.420;15.548;2023-11-21T10:56:23;3.67;;;2.43;;
12135;SDS011;6131;56.420;15.548;2023-11-21T10:58:49;3.03;;;2.30;;
12135;SDS011;6131;56.420;15.548;2023-11-21T11:01:19;2.43;;;2.03;;
12135;SDS011;6131;56.420;15.548;2023-11-21T11:03:49;2.33;;;2.13;;
12135;SDS011;6131;56.420;15.548;2023-11-21T11:06:15;2.93;;;2.23;;
12135;SDS011;6131;56.420;15.548;2023-11-21T11:08:42;2.87;;;2.23;;
12135;SDS011;6131;56.420;15.548;2023-11-21T11:11:09;4.50;;;2.50;;
12135;SDS011;6131;56.420;15.548;2023-11-21T11:13:35;3.87;;;2.33;;
12135;SDS011;6131;56.420;15.548;2023-11-21T11:16:03;4.07;;;2.50;;
12135;SDS011;6131;56.420;15.548;2023-11-21T11:18:32;3.40;;;2.40;;
12135;SDS011;6131;56.420;15.548;2023-11-21T11:21:42;3.57;;;2.50;;
12135;SDS011;6131;56.420;15.548;2023-11-21T11:29:21;2.50;;;2.00;;
12135;SDS011;6131;56.420;15.548;2023-11-21T11:32:00;3.70;;;2.43;;
12135;SDS011;6131;56.420;15.548;2023-11-21T11:34:30;4.03;;;2.00;;
12135;SDS011;6131;56.420;15.548;2023-11-21T11:37:01;3.67;;;1.90;;
12135;SDS011;6131;56.420;15.548;2023-11-21T11:42:01;2.93;;;2.10;;
12135;SDS011;6131;56.420;15.548;2023-11-21T11:49:55;2.20;;;2.00;;
12135;SDS011;6131;56.420;15.548;2023-11-21T11:52:34;3.53;;;2.30;;
12135;SDS011;6131;56.420;15.548;2023-11-21T11:55:04;2.67;;;2.20;;
12135;SDS011;6131;56.420;15.548;2023-11-21T11:57:35;2.50;;;2.10;;
12135;SDS011;6131;56.420;15.548;2023-11-21T12:02:41;4.07;;;2.37;;
12135;SDS011;6131;56.420;15.548;2023-11-21T12:05:11;2.37;;;2.07;;
12135;SDS011;6131;56.420;15.548;2023-11-21T12:10:12;2.53;;;2.10;;
12135;SDS011;6131;56.420;15.548;2023-11-21T12:12:43;3.87;;;2.40;;
12135;SDS011;6131;56.420;15.548;2023-11-21T12:15:10;2.97;;;2.20;;
12135;SDS011;6131;56.420;15.548;2023-11-21T12:17:37;2.57;;;2.27;;
12135;SDS011;6131;56.420;15.548;2023-11-21T12:20:04;3.17;;;2.23;;
12135;SDS011;6131;56.420;15.548;2023-11-21T12:22:31;3.07;;;2.30;;
12135;SDS011;6131;56.420;15.548;2023-11-21T12:24:57;2.37;;;2.17;;
12135;SDS011;6131;56.420;15.548;2023-11-21T12:27:23;3.23;;;2.50;;
12135;SDS011;6131;56.420;15.548;2023-11-21T12:29:49;3.33;;;1.87;;
12135;SDS011;6131;56.420;15.548;2023-11-21T12:32:15;2.50;;;2.30;;
12135;SDS011;6131;56.420;15.548;2023-11-21T12:34:43;2.30;;;2.10;;
12135;SDS011;6131;56.420;15.548;2023-11-21T12:37:09;2.97;;;2.33;;
12135;SDS011;6131;56.420;15.548;2023-11-21T12:39:35;2.80;;;2.33;;
12135;SDS011;6131;56.420;15.548;2023-11-21T12:42:01;4.97;;;3.00;;
12135;SDS011;6131;56.420;15.548;2023-11-21T12:44:27;4.13;;;2.90;;
12135;SDS011;6131;56.420;15.548;2023-11-21T12:46:54;3.93;;;3.07;;
12135;SDS011;6131;56.420;15.548;2023-11-21T12:49:20;4.03;;;2.60;;
12135;SDS011;6131;56.420;15.548;2023-11-21T12:51:47;5.80;;;2.90;;
12135;SDS011;6131;56.420;15.548;2023-11-21T12:54:13;3.40;;;2.73;;
12135;SDS011;6131;56.420;15.548;2023-11-21T12:56:39;3.60;;;2.70;;
12135;SDS011;6131;56.420;15.548;2023-11-21T12:59:05;3.23;;;2.40;;
12135;SDS011;6131;56.420;15.548;2023-11-21T13:01:31;3.20;;;2.43;;
12135;SDS011;6131;56.420;15.548;2023-11-21T13:03:57;3.03;;;2.50;;
12135;SDS011;6131;56.420;15.548;2023-11-21T13:06:23;3.40;;;2.47;;
12135;SDS011;6131;56.420;15.548;2023-11-21T13:08:51;3.83;;;2.60;;
12135;SDS011;6131;56.420;15.548;2023-11-21T13:11:17;3.10;;;2.43;;
12135;SDS011;6131;56.420;15.548;2023-11-21T13:13:43;3.77;;;2.80;;
12135;SDS011;6131;56.420;15.548;2023-11-21T13:16:10;3.33;;;2.70;;
12135;SDS011;6131;56.420;15.548;2023-11-21T13:18:36;2.97;;;2.60;;
12135;SDS011;6131;56.420;15.548;2023-11-21T13:21:04;3.97;;;2.67;;
12135;SDS011;6131;56.420;15.548;2023-11-21T13:23:49;2.93;;;2.60;;
12135;SDS011;6131;56.420;15.548;2023-11-21T13:26:18;3.13;;;2.30;;
12135;SDS011;6131;56.420;15.548;2023-11-21T13:28:45;4.47;;;2.50;;
12135;SDS011;6131;56.420;15.548;2023-11-21T13:31:12;4.03;;;2.97;;
12135;SDS011;6131;56.420;15.548;2023-11-21T13:33:51;3.43;;;2.47;;
12135;SDS011;6131;56.420;15.548;2023-11-21T13:36:24;4.57;;;2.47;;
12135;SDS011;6131;56.420;15.548;2023-11-21T13:38:50;5.17;;;2.47;;
12135;SDS011;6131;56.420;15.548;2023-11-21T13:41:20;3.10;;;2.63;;
12135;SDS011;6131;56.420;15.548;2023-11-21T13:43:53;4.30;;;2.97;;
12135;SDS011;6131;56.420;15.548;2023-11-21T13:46:28;3.80;;;2.97;;
12135;SDS011;6131;56.420;15.548;2023-11-21T13:48:56;5.20;;;3.33;;
12135;SDS011;6131;56.420;15.548;2023-11-21T13:51:22;3.57;;;3.13;;
12135;SDS011;6131;56.420;15.548;2023-11-21T13:54:01;3.67;;;2.90;;
12135;SDS011;6131;56.420;15.548;2023-11-21T13:56:27;3.10;;;2.80;;
12135;SDS011;6131;56.420;15.548;2023-11-21T13:58:54;3.70;;;3.30;;
12135;SDS011;6131;56.420;15.548;2023-11-21T14:01:22;3.33;;;2.90;;
12135;SDS011;6131;56.420;15.548;2023-11-21T14:03:48;4.33;;;3.07;;
12135;SDS011;6131;56.420;15.548;2023-11-21T14:06:21;3.97;;;3.00;;
12135;SDS011;6131;56.420;15.548;2023-11-21T14:08:53;3.17;;;2.70;;
12135;SDS011;6131;56.420;15.548;2023-11-21T14:11:22;4.40;;;3.23;;
12135;SDS011;6131;56.420;15.548;2023-11-21T14:13:48;3.90;;;3.20;;
12135;SDS011;6131;56.420;15.548;2023-11-21T14:16:14;4.57;;;3.10;;
12135;SDS011;6131;56.420;15.548;2023-11-21T14:18:42;4.30;;;3.20;;
12135;SDS011;6131;56.420;15.548;2023-11-21T14:21:20;3.67;;;2.93;;
12135;SDS011;6131;56.420;15.548;2023-11-21T14:23:47;2.87;;;2.63;;
12135;SDS011;6131;56.420;15.548;2023-11-21T14:26:13;4.20;;;3.10;;
12135;SDS011;6131;56.420;15.548;2023-11-21T14:28:40;4.47;;;3.10;;
12135;SDS011;6131;56.420;15.548;2023-11-21T14:31:07;3.27;;;2.80;;
12135;SDS011;6131;56.420;15.548;2023-11-21T14:33:38;3.17;;;2.70;;
12135;SDS011;6131;56.420;15.548;2023-11-21T14:36:04;3.30;;;2.50;;
12135;SDS011;6131;56.420;15.548;2023-11-21T14:38:30;3.30;;;3.00;;
12135;SDS011;6131;56.420;15.548;2023-11-21T14:40:56;5.20;;;2.93;;
12135;SDS011;6131;56.420;15.548;2023-11-21T14:43:22;4.20;;;3.00;;
12135;SDS011;6131;56.420;15.548;2023-11-21T14:45:49;3.10;;;2.60;;
12135;SDS011;6131;56.420;15.548;2023-11-21T14:48:15;3.83;;;3.20;;
12135;SDS011;6131;56.420;15.548;2023-11-21T14:50:51;4.00;;;3.00;;
12135;SDS011;6131;56.420;15.548;2023-11-21T14:53:40;4.90;;;2.97;;
12135;SDS011;6131;56.420;15.548;2023-11-21T14:56:18;4.20;;;2.70;;
12135;SDS011;6131;56.420;15.548;2023-11-21T14:58:51;3.43;;;2.80;;
12135;SDS011;6131;56.420;15.548;2023-11-21T15:01:17;4.63;;;3.17;;
12135;SDS011;6131;56.420;15.548;2023-11-21T15:03:51;3.63;;;3.03;;
12135;SDS011;6131;56.420;15.548;2023-11-21T15:06:19;4.10;;;3.37;;
12135;SDS011;6131;56.420;15.548;2023-11-21T15:08:52;5.03;;;2.93;;